Time;durP1;ratioP1;P1;durP2;ratioP2;P2;SDS_P1;SDS_P2;PMS_P1;PMS_P2;Temp;Humidity;BMP_temperature;BMP_pressure;BME280_temperature;BME280_humidity;BME280_pressure;Samples;Min_cycle;Max_cycle;Signal;HPM_P1;HPM_P2
2023/01/15 00:01:02;;;;;;;;;0.00;0.00;;;;;7.66;100.00;100337.63;4993477;28;45531;-87
2023/01/15 00:03:31;;;;;;;;;0.50;0.00;;;;;7.68;100.00;100329.84;5007142;28;45601;-87
2023/01/15 00:06:01;;;;;;;;;1.50;0.00;;;;;7.71;100.00;100329.78;4992022;28;45365;-88
2023/01/15 00:08:27;;;;;;;;;0.50;0.00;;;;;7.72;100.00;100336.63;4996849;28;47173;-87
2023/01/15 00:10:52;;;;;;;;;0.00;0.00;;;;;7.73;100.00;100341.78;4997956;28;45721;-88
2023/01/15 00:13:22;;;;;;;;;0.75;0.00;;;;;7.73;100.00;100335.78;4974192;28;45458;-87
2023/01/15 00:15:55;;;;;;;;;0.00;0.00;;;;;7.71;100.00;100333.22;4978014;28;45239;-88
2023/01/15 00:18:23;;;;;;;;;1.25;1.00;;;;;7.70;100.00;100341.84;5014039;28;45549;-89
2023/01/15 00:20:55;;;;;;;;;0.50;0.50;;;;;7.69;100.00;100337.56;4978268;28;45910;-88
2023/01/15 00:29:01;;;;;;;;;1.00;0.00;;;;;7.59;100.00;100343.84;4998392;28;45688;-90
2023/01/15 00:31:27;;;;;;;;;0.00;0.00;;;;;7.57;100.00;100335.25;4982554;28;45378;-89
2023/01/15 00:33:57;;;;;;;;;0.00;0.00;;;;;7.59;100.00;100338.66;4997937;28;45530;-89
2023/01/15 00:36:24;;;;;;;;;1.25;0.00;;;;;7.61;100.00;100330.88;4999170;28;45566;-88
2023/01/15 00:38:50;;;;;;;;;0.00;0.00;;;;;7.62;100.00;100332.59;4997508;28;46681;-89
2023/01/15 00:41:18;;;;;;;;;0.00;0.00;;;;;7.60;100.00;100344.72;4999064;28;45409;-89
2023/01/15 00:43:46;;;;;;;;;0.50;0.00;;;;;7.60;100.00;100324.84;4998066;28;45385;-90
2023/01/15 00:46:16;;;;;;;;;0.50;0.00;;;;;7.62;100.00;100336.00;5031155;28;45377;-89
2023/01/15 00:48:44;;;;;;;;;1.00;0.00;;;;;7.65;100.00;100335.06;5014397;28;47434;-90
2023/01/15 00:51:19;;;;;;;;;;;;;;;;;;;;;
2023/01/15 00:53:47;;;;;;;;;0.00;0.00;;;;;7.60;100.00;100329.19;4992699;28;69735;-89
2023/01/15 00:56:15;;;;;;;;;1.00;0.00;;;;;7.62;100.00;100324.81;4997434;28;45524;-90
2023/01/15 00:58:45;;;;;;;;;0.00;0.00;;;;;7.62;100.00;100324.81;4997401;28;48143;-89
2023/01/15 01:01:26;;;;;;;;;;;;;;;;;;;;;
2023/01/15 01:03:54;;;;;;;;;0.00;0.00;;;;;7.57;100.00;100325.75;4993056;28;69868;-89
2023/01/15 01:06:22;;;;;;;;;0.75;0.00;;;;;7.57;100.00;100336.09;4998799;28;45235;-90
2023/01/15 01:09:05;;;;;;;;;0.00;0.00;;;;;7.56;100.00;100326.66;4981752;28;47297;-90
2023/01/15 01:11:33;;;;;;;;;0.00;0.00;;;;;7.60;100.00;100324.00;4998696;28;45761;-89
2023/01/15 01:14:05;;;;;;;;;1.50;0.25;;;;;7.61;100.00;100320.50;4981755;28;45404;-91
2023/01/15 01:16:44;;;;;;;;;;;;;;;;;;;;;
2023/01/15 01:19:16;;;;;;;;;1.00;0.00;;;;;7.64;100.00;100335.97;4996591;28;74979;-90
2023/01/15 01:21:45;;;;;;;;;0.75;0.00;;;;;7.64;100.00;100343.75;4997738;28;45575;-90
2023/01/15 01:24:21;;;;;;;;;1.00;0.00;;;;;7.62;100.00;100342.94;4981696;28;45403;-91
2023/01/15 01:26:57;;;;;;;;;0.00;0.00;;;;;7.61;100.00;100336.88;4999345;28;45420;-91
2023/01/15 01:29:31;;;;;;;;;0.00;0.00;;;;;7.60;100.00;100326.59;5011328;28;46170;-92
2023/01/15 01:31:59;;;;;;;;;0.00;0.00;;;;;7.62;100.00;100341.19;5015595;28;44993;-92
2023/01/15 01:34:32;;;;;;;;;1.00;0.00;;;;;7.60;100.00;100349.91;5001332;28;45250;-92
2023/01/15 01:37:15;;;;;;;;;0.00;0.00;;;;;7.55;100.00;100356.00;4998188;28;45334;-92
2023/01/15 01:39:43;;;;;;;;;0.00;0.00;;;;;7.52;100.00;100366.47;4981381;28;48072;-92
2023/01/15 01:42:29;;;;;;;;;0.00;0.00;;;;;7.49;100.00;100357.91;4981542;28;46035;-92
2023/01/15 01:45:03;;;;;;;;;0.00;0.00;;;;;7.51;100.00;100354.38;4980805;28;45240;-91
2023/01/15 01:47:30;;;;;;;;;1.00;0.00;;;;;7.52;100.00;100348.31;4998556;28;45469;-91
2023/01/15 01:50:12;;;;;;;;;0.00;0.00;;;;;7.50;100.00;100357.00;4997148;28;45363;-91
2023/01/15 01:53:11;;;;;;;;;0.00;0.00;;;;;7.46;100.00;100352.78;4997548;28;45539;-91
2023/01/15 01:55:40;;;;;;;;;1.50;0.00;;;;;7.47;100.00;100349.31;4997622;28;45431;-91
2023/01/15 01:58:08;;;;;;;;;0.00;0.00;;;;;7.46;100.00;100358.81;4998205;28;45270;-92
2023/01/15 02:00:37;;;;;;;;;1.00;0.00;;;;;7.47;100.00;100354.50;4997447;28;46276;-92
2023/01/15 02:03:09;;;;;;;;;0.00;0.00;;;;;7.46;100.00;100358.81;4997914;28;45667;-93
2023/01/15 02:05:39;;;;;;;;;1.00;0.00;;;;;7.47;100.00;100347.56;4981162;28;45324;-92
2023/01/15 02:08:06;;;;;;;;;0.00;0.00;;;;;7.49;100.00;100360.50;4981141;28;45566;-90
2023/01/15 02:10:32;;;;;;;;;0.75;0.00;;;;;7.49;100.00;100365.66;4997263;28;46294;-90
2023/01/15 02:13:20;;;;;;;;;0.00;0.00;;;;;7.48;100.00;100385.50;4980776;28;45359;-91
2023/01/15 02:15:55;;;;;;;;;0.00;0.00;;;;;7.47;100.00;100396.78;5012877;28;45242;-91
2023/01/15 02:18:54;;;;;;;;;0.00;0.00;;;;;7.50;100.00;100390.66;4997140;28;45631;-91
2023/01/15 02:21:25;;;;;;;;;0.00;0.00;;;;;7.51;100.00;100390.63;4995042;28;45388;-92
2023/01/15 02:24:12;;;;;;;;;2.00;0.00;;;;;7.51;100.00;100389.78;4997235;28;45540;-92
2023/01/15 02:27:07;;;;;;;;;0.00;0.00;;;;;7.49;100.00;100401.94;5013864;28;45374;-91
2023/01/15 02:29:35;;;;;;;;;0.00;0.00;;;;;7.50;100.00;100407.09;5013934;28;45262;-92
2023/01/15 02:32:09;;;;;;;;;0.50;0.00;;;;;7.52;100.00;100419.97;4997301;28;48208;-91
2023/01/15 02:34:44;;;;;;;;;0.00;0.00;;;;;7.53;100.00;100398.38;4980269;28;46075;-91
2023/01/15 02:37:21;;;;;;;;;1.00;0.00;;;;;7.50;100.00;100403.63;4980985;28;45376;-92
2023/01/15 02:39:48;;;;;;;;;0.00;0.00;;;;;7.51;100.00;100413.09;4997055;28;45705;-90
2023/01/15 02:42:18;;;;;;;;;0.00;0.00;;;;;7.52;100.00;100420.84;5003029;28;46211;-92
2023/01/15 02:44:58;;;;;;;;;0.00;0.00;;;;;7.53;100.00;100408.75;5049708;28;45719;-91
2023/01/15 02:47:26;;;;;;;;;0.00;0.00;;;;;7.50;100.00;100408.78;5000528;28;45279;-93
2023/01/15 02:50:00;;;;;;;;;0.00;0.00;;;;;7.52;100.00;100417.38;5016891;28;45283;-93
2023/01/15 02:52:42;;;;;;;;;;;;;;;;;;;;;
2023/01/15 02:55:22;;;;;;;;;1.00;1.00;;;;;7.52;100.00;100419.97;5005403;28;72767;-92
2023/01/15 02:57:55;;;;;;;;;4.50;0.00;;;;;7.49;100.00;100407.97;4997035;28;45260;-94
2023/01/15 03:00:22;;;;;;;;;0.00;0.00;;;;;7.47;100.00;100414.91;4997139;28;45291;-93
2023/01/15 03:03:23;;;;;;;;;0.00;0.00;;;;;7.45;100.00;100440.00;4996307;28;47289;-94
2023/01/15 03:06:14;;;;;;;;;0.00;0.00;;;;;7.43;100.00;100453.84;4997764;28;45226;-93
2023/01/15 03:08:49;;;;;;;;;1.00;1.00;;;;;7.43;100.00;100441.75;4987958;28;45361;-92
2023/01/15 03:11:23;;;;;;;;;0.00;0.00;;;;;7.37;100.00;100436.69;4996627;28;45441;-94
2023/01/15 03:14:27;;;;;;;;;1.00;0.00;;;;;7.38;100.00;100443.59;4996661;28;46195;-92
2023/01/15 03:16:58;;;;;;;;;0.00;0.00;;;;;7.36;100.00;100446.19;4936771;28;45824;-91
2023/01/15 03:19:45;;;;;;;;;;;;;;;;;;;;;
2023/01/15 03:22:41;;;;;;;;;;;;;;;;;;;;;
2023/01/15 03:25:36;;;;;;;;;0.75;0.00;;;;;7.37;100.00;100426.31;4919534;28;75035;-92
2023/01/15 03:28:14;;;;;;;;;0.00;0.00;;;;;7.36;100.00;100459.16;4926062;28;45507;-92
2023/01/15 03:30:50;;;;;;;;;0.00;0.00;;;;;7.34;100.00;100470.44;4928107;28;45516;-90
2023/01/15 03:33:35;;;;;;;;;;;;;;;;;;;;;
2023/01/15 03:36:13;;;;;;;;;;;;;;;;;;;;;
2023/01/15 03:38:49;;;;;;;;;;;;;;;;;;;;;
2023/01/15 03:41:23;;;;;;;;;0.00;0.00;;;;;7.23;100.00;100449.94;4942109;28;67473;-92
2023/01/15 03:43:58;;;;;;;;;0.00;0.00;;;;;7.17;100.00;100442.28;4927473;28;45458;-92
2023/01/15 03:46:54;;;;;;;;;0.00;0.00;;;;;7.10;100.00;100438.94;4959427;28;46263;-94
2023/01/15 03:49:28;;;;;;;;;0.00;0.00;;;;;7.08;100.00;100425.19;4943588;28;45305;-94
2023/01/15 03:52:09;;;;;;;;;;;;;;;;;;;;;
2023/01/15 03:55:04;;;;;;;;;0.00;0.00;;;;;7.04;100.00;100430.44;4978217;28;70298;-95
2023/01/15 03:57:48;;;;;;;;;0.00;0.00;;;;;7.00;100.00;100437.41;4999929;28;47603;-94
2023/01/15 04:00:27;;;;;;;;;0.00;0.00;;;;;6.94;100.00;100440.13;4982939;28;45833;-95
2023/01/15 04:02:58;;;;;;;;;0.00;0.00;;;;;6.91;100.00;100433.28;4999383;28;45374;-94
2023/01/15 04:05:34;;;;;;;;;0.00;0.00;;;;;6.91;100.00;100419.47;4984226;28;45330;-94
2023/01/15 04:08:02;;;;;;;;;0.00;0.00;;;;;6.90;100.00;100421.22;5001689;28;47206;-92
2023/01/15 04:10:35;;;;;;;;;1.00;0.00;;;;;6.88;100.00;100414.38;5015570;28;45706;-94
2023/01/15 04:13:13;;;;;;;;;;;;;;;;;;;;;
2023/01/15 04:15:41;;;;;;;;;0.00;0.00;;;;;6.90;100.00;100417.78;5009990;28;68328;-94
2023/01/15 04:18:16;;;;;;;;;;;;;;;;;;;;;
2023/01/15 04:20:58;;;;;;;;;;;;;;;;;;;;;
2023/01/15 04:23:28;;;;;;;;;1.00;0.00;;;;;6.86;100.00;100410.97;4996775;28;67119;-92
2023/01/15 04:26:06;;;;;;;;;;;;;;;;;;;;;
2023/01/15 04:28:32;;;;;;;;;0.00;0.00;;;;;6.80;100.00;100414.53;4993506;28;76242;-94
2023/01/15 04:31:08;;;;;;;;;0.00;0.00;;;;;6.83;100.00;100426.53;4998366;28;46018;-95
2023/01/15 04:33:54;;;;;;;;;0.00;0.00;;;;;6.78;100.00;100426.63;4983489;28;45594;-93
2023/01/15 04:36:20;;;;;;;;;0.00;0.00;;;;;6.74;100.00;100433.59;5012757;28;45266;-95
2023/01/15 04:38:58;;;;;;;;;0.00;0.00;;;;;6.76;100.00;100428.38;4979838;28;46658;-94
2023/01/15 04:44:26;;;;;;;;;0.00;0.00;;;;;6.71;100.00;100451.75;4999855;28;45698;-96
2023/01/15 04:47:04;;;;;;;;;;;;;;;;;;;;;
2023/01/15 04:49:39;;;;;;;;;0.25;0.00;;;;;6.70;100.00;100455.19;4994743;28;76562;-96
2023/01/15 04:52:18;;;;;;;;;;;;;;;;;;;;;
2023/01/15 04:54:56;;;;;;;;;0.00;0.00;;;;;6.66;100.00;100444.94;4995042;28;69360;-96
2023/01/15 04:57:34;;;;;;;;;;;;;;;;;;;;;
2023/01/15 05:00:22;;;;;;;;;0.00;0.00;;;;;6.62;100.00;100454.50;4998738;28;76396;-95
2023/01/15 05:03:00;;;;;;;;;0.00;0.00;;;;;6.59;100.00;100454.53;5002539;28;45385;-93
2023/01/15 05:05:28;;;;;;;;;0.00;0.00;;;;;6.61;100.00;100457.94;4999544;28;45231;-96
2023/01/15 05:08:02;;;;;;;;;0.00;0.00;;;;;6.60;100.00;100461.44;4998806;28;45306;-96
2023/01/15 05:10:37;;;;;;;;;;;;;;;;;;;;;
2023/01/15 05:13:03;;;;;;;;;0.00;0.00;;;;;6.58;100.00;100473.53;4995255;28;73888;-95
2023/01/15 05:15:41;;;;;;;;;;;;;;;;;;;;;
2023/01/15 05:18:07;;;;;;;;;0.00;0.00;;;;;6.57;100.00;100474.41;4997912;28;70067;-94
2023/01/15 05:20:42;;;;;;;;;0.00;0.00;;;;;6.56;100.00;100486.47;4998568;28;45831;-94
2023/01/15 05:23:09;;;;;;;;;0.00;0.00;;;;;6.56;100.00;100477.88;4982797;28;45676;-93
2023/01/15 05:25:38;;;;;;;;;0.00;0.00;;;;;6.54;100.00;100477.06;4982328;28;45328;-95
2023/01/15 05:28:14;;;;;;;;;;;;;;;;;;;;;
2023/01/15 05:30:39;;;;;;;;;0.00;0.00;;;;;6.57;100.00;100459.75;4997896;28;75379;-95
2023/01/15 05:33:05;;;;;;;;;0.00;0.00;;;;;6.62;100.00;100470.00;4998393;28;45410;-95
2023/01/15 05:35:33;;;;;;;;;0.00;0.00;;;;;6.61;100.00;100481.22;4982127;28;45339;-94
2023/01/15 05:38:06;;;;;;;;;0.00;0.00;;;;;6.61;100.00;100488.97;4998880;28;45655;-94
2023/01/15 05:40:32;;;;;;;;;0.00;0.00;;;;;6.60;100.00;100492.47;4998051;28;45427;-93
2023/01/15 05:42:57;;;;;;;;;0.00;0.00;;;;;6.58;100.00;100494.22;4993202;28;45356;-91
2023/01/15 05:45:32;;;;;;;;;0.00;0.00;;;;;6.61;100.00;100493.31;5017943;28;45345;-92
2023/01/15 05:48:02;;;;;;;;;0.00;0.00;;;;;6.61;100.00;100491.56;5051278;28;45493;-92
2023/01/15 05:50:36;;;;;;;;;0.00;0.00;;;;;6.58;100.00;100500.25;5018290;28;46157;-92
2023/01/15 05:53:02;;;;;;;;;0.00;0.00;;;;;6.58;100.00;100502.81;5018773;28;45265;-95
2023/01/15 05:55:27;;;;;;;;;0.25;0.00;;;;;6.57;100.00;100498.56;5034346;28;45320;-94
2023/01/15 05:58:00;;;;;;;;;0.00;0.00;;;;;6.56;100.00;100496.81;5017628;28;45224;-94
2023/01/15 06:00:26;;;;;;;;;0.00;0.00;;;;;6.52;100.00;100504.66;5034098;28;48200;-95
2023/01/15 06:02:59;;;;;;;;;0.00;0.00;;;;;6.52;100.00;100509.81;5017449;28;45276;-95
2023/01/15 06:05:34;;;;;;;;;0.50;0.00;;;;;6.53;100.00;100514.13;5017828;28;45374;-95
2023/01/15 06:07:59;;;;;;;;;1.00;0.00;;;;;6.49;100.00;100528.81;5049582;28;45273;-95
2023/01/15 06:10:32;;;;;;;;;0.50;0.00;;;;;6.48;100.00;100529.72;5018100;28;46330;-96
2023/01/15 06:12:57;;;;;;;;;1.00;0.00;;;;;6.46;100.00;100534.03;5018411;28;45346;-94
2023/01/15 06:15:23;;;;;;;;;1.00;0.00;;;;;6.44;100.00;100538.38;5050908;28;45324;-95
2023/01/15 06:17:49;;;;;;;;;0.00;0.00;;;;;6.45;100.00;100539.25;5034169;28;45531;-96
2023/01/15 06:20:15;;;;;;;;;0.25;0.00;;;;;6.43;100.00;100541.00;5017322;28;45449;-95
2023/01/15 06:22:43;;;;;;;;;0.00;0.00;;;;;6.40;100.00;100554.81;5001197;28;45264;-93
2023/01/15 06:25:08;;;;;;;;;0.00;0.00;;;;;6.37;100.00;100541.94;5018351;28;45194;-95
2023/01/15 06:27:36;;;;;;;;;0.00;0.00;;;;;6.34;100.00;100549.75;5017578;28;45519;-95
2023/01/15 06:30:01;;;;;;;;;0.00;0.00;;;;;6.36;100.00;100545.41;5049572;28;45591;-94
2023/01/15 06:32:36;;;;;;;;;0.00;0.00;;;;;6.31;100.00;100554.97;5019145;28;45357;-96
2023/01/15 06:35:02;;;;;;;;;0.00;0.00;;;;;6.34;100.00;100558.34;5051248;28;45354;-96
2023/01/15 06:37:35;;;;;;;;;0.50;0.00;;;;;6.33;100.00;100566.13;5000799;28;45355;-95
2023/01/15 06:40:24;;;;;;;;;0.00;0.00;;;;;6.32;100.00;100579.94;5018618;28;45465;-94
2023/01/15 06:48:30;;;;;;;;;0.00;0.00;;;;;6.19;100.00;100597.34;5022575;28;44722;-94
2023/01/15 06:51:13;;;;;;;;;;;;;;;;;;;;;
2023/01/15 06:53:52;;;;;;;;;;;;;;;;;;;;;
2023/01/15 06:56:19;;;;;;;;;0.00;0.00;;;;;6.12;100.00;100609.47;4995702;28;67804;-96
2023/01/15 06:58:55;;;;;;;;;;;;;;;;;;;;;
2023/01/15 07:01:48;;;;;;;;;;;;;;;;;;;;;
2023/01/15 07:04:25;;;;;;;;;0.00;0.00;;;;;6.03;100.00;100624.25;4996610;28;73046;-95
2023/01/15 07:06:50;;;;;;;;;0.75;0.00;;;;;5.94;100.00;100628.63;4984486;28;45359;-95
2023/01/15 07:09:19;;;;;;;;;0.00;0.00;;;;;5.93;100.00;100633.81;4984530;28;45342;-96
2023/01/15 07:11:53;;;;;;;;;0.00;0.00;;;;;5.91;100.00;100627.81;4988199;28;47248;-96
2023/01/15 07:14:52;;;;;;;;;;;;;;;;;;;;;
2023/01/15 07:17:28;;;;;;;;;;;;;;;;;;;;;
2023/01/15 07:19:59;;;;;;;;;0.00;0.00;;;;;5.80;100.00;100621.03;4994432;28;71186;-96
2023/01/15 07:22:27;;;;;;;;;0.00;0.00;;;;;5.78;100.00;100617.59;4997361;28;45641;-91
2023/01/15 07:24:55;;;;;;;;;0.00;0.00;;;;;5.77;100.00;100639.13;4996433;28;45597;-91
2023/01/15 07:30:54;;;;;;;;;0.00;0.00;;;;;5.74;100.00;100646.94;4992222;28;46160;-90
2023/01/15 07:33:22;;;;;;;;;0.00;0.00;;;;;5.75;100.00;100637.44;5012678;28;47520;-89
2023/01/15 07:36:10;;;;;;;;;0.00;0.00;;;;;5.73;100.00;100637.47;4979796;28;46017;-90
2023/01/15 07:38:56;;;;;;;;;0.25;0.00;;;;;5.75;100.00;100647.78;4995737;28;45981;-90
2023/01/15 07:50:09;;;;;;;;;0.00;0.00;;;;;5.72;100.00;100640.94;4995713;28;45238;-86
2023/01/15 07:52:35;;;;;;;;;0.00;0.00;;;;;5.72;100.00;100645.22;4994426;28;45293;-86
2023/01/15 07:55:02;;;;;;;;;0.50;0.00;;;;;5.72;100.00;100646.09;4993758;28;45530;-88
2023/01/15 07:57:28;;;;;;;;;0.00;0.00;;;;;5.75;100.00;100640.88;4977725;28;45417;-87
2023/01/15 07:59:53;;;;;;;;;0.00;0.00;;;;;5.76;100.00;100646.91;4994507;28;45429;-86
2023/01/15 08:02:19;;;;;;;;;0.00;0.00;;;;;5.78;100.00;100630.53;4995370;28;45393;-86
2023/01/15 08:04:46;;;;;;;;;0.25;0.00;;;;;5.79;100.00;100632.25;4994185;28;48326;-86
2023/01/15 08:07:11;;;;;;;;;1.00;0.00;;;;;5.81;100.00;100635.66;4994504;28;45502;-86
2023/01/15 08:09:37;;;;;;;;;1.50;0.00;;;;;5.81;100.00;100643.41;4994224;28;45517;-87
2023/01/15 08:17:37;;;;;;;;;0.00;0.00;;;;;5.85;100.00;100638.19;4999682;28;45819;-87
2023/01/15 08:20:04;;;;;;;;;1.00;0.00;;;;;5.88;100.00;100639.03;4998348;28;45420;-88
2023/01/15 08:22:30;;;;;;;;;0.00;0.00;;;;;5.89;100.00;100639.88;4998794;28;45500;-87
2023/01/15 08:24:55;;;;;;;;;0.00;0.00;;;;;5.90;100.00;100632.09;4998819;28;46955;-87
2023/01/15 08:27:20;;;;;;;;;0.00;0.00;;;;;5.91;100.00;100643.31;4999025;28;45358;-88
2023/01/15 08:29:46;;;;;;;;;1.00;0.00;;;;;5.92;100.00;100650.19;4997912;28;45338;-87
2023/01/15 08:32:11;;;;;;;;;0.50;0.00;;;;;5.96;100.00;100662.22;4997626;28;45553;-85
2023/01/15 08:34:37;;;;;;;;;1.00;0.00;;;;;5.95;100.00;100655.31;4997838;28;46054;-87
2023/01/15 08:37:02;;;;;;;;;1.00;0.00;;;;;6.00;100.00;100656.16;4998479;28;45301;-87
2023/01/15 08:39:28;;;;;;;;;0.50;0.00;;;;;5.97;100.00;100659.63;4997903;28;45711;-88
2023/01/15 08:41:54;;;;;;;;;0.00;0.00;;;;;6.00;100.00;100657.00;5001286;28;45489;-88
2023/01/15 08:44:20;;;;;;;;;0.00;0.00;;;;;6.01;100.00;100657.84;5033954;28;48227;-89
2023/01/15 08:46:47;;;;;;;;;0.00;0.00;;;;;5.99;100.00;100652.69;5017522;28;45812;-89
2023/01/15 08:49:12;;;;;;;;;0.00;0.00;;;;;6.07;100.00;100646.59;5018210;28;45254;-85
2023/01/15 08:51:38;;;;;;;;;1.00;0.00;;;;;6.05;100.00;100646.59;5017098;28;45625;-86
2023/01/15 08:54:03;;;;;;;;;1.00;0.00;;;;;6.06;100.00;100640.56;5016934;28;45354;-86
2023/01/15 08:56:28;;;;;;;;;0.00;0.00;;;;;6.10;100.00;100644.81;4997273;28;53739;-86
2023/01/15 08:58:54;;;;;;;;;0.75;0.00;;;;;6.13;100.00;100639.63;4998480;28;45279;-88
2023/01/15 09:01:19;;;;;;;;;1.00;0.00;;;;;6.17;100.00;100637.88;4997382;28;45299;-90
2023/01/15 09:03:45;;;;;;;;;0.00;0.00;;;;;6.19;100.00;100631.78;4997481;28;45530;-89
2023/01/15 09:06:10;;;;;;;;;1.00;0.00;;;;;6.26;100.00;100642.03;4997983;28;45436;-89
2023/01/15 09:08:36;;;;;;;;;0.00;0.00;;;;;6.29;100.00;100642.03;4997858;28;45341;-85
2023/01/15 09:11:04;;;;;;;;;0.00;0.00;;;;;6.30;100.00;100641.16;4980209;28;45715;-84
2023/01/15 09:13:30;;;;;;;;;6.25;0.00;;;;;6.33;100.00;100656.59;4996604;28;45463;-86
2023/01/15 09:15:59;;;;;;;;;1.00;0.00;;;;;6.36;100.00;100652.25;4996542;28;45309;-86
2023/01/15 09:18:25;;;;;;;;;0.00;0.00;;;;;6.42;100.00;100642.72;4996774;28;45477;-86
2023/01/15 09:20:50;;;;;;;;;0.00;0.00;;;;;6.43;100.00;100653.03;4996515;28;45555;-85
2023/01/15 09:23:33;;;;;;;;;0.00;0.00;;;;;6.48;100.00;100653.84;4995368;28;61580;-83
2023/01/15 09:26:34;;;;;;;;;1.25;0.00;;;;;6.54;100.00;100648.59;4979077;28;45978;-85
2023/01/15 09:31:35;;;;;;;;;1.00;0.00;;;;;6.65;100.00;100655.31;5651583;22;45397;-85
2023/01/15 09:34:00;;;;;;;;;0.75;0.00;;;;;6.69;100.00;100654.44;4994848;28;45485;-84
2023/01/15 09:36:32;;;;;;;;;0.00;0.00;;;;;6.71;100.00;100653.50;4996655;28;45471;-90
2023/01/15 09:39:02;;;;;;;;;1.75;0.00;;;;;6.73;100.00;100667.28;4996537;28;45526;-88
2023/01/15 09:42:06;;;;;;;;;2.00;0.00;;;;;6.77;100.00;100655.16;4995847;28;45427;-87
2023/01/15 09:45:00;;;;;;;;;2.50;0.00;;;;;6.79;100.00;100653.41;4993509;28;45524;-86
2023/01/15 09:48:04;;;;;;;;;0.75;0.00;;;;;6.84;100.00;100664.53;4989698;28;45591;-86
2023/01/15 09:50:48;;;;;;;;;1.50;0.00;;;;;6.87;100.00;100659.34;4977548;28;45318;-87
2023/01/15 09:53:46;;;;;;;;;0.00;0.00;;;;;6.92;100.00;100657.50;5014934;28;45420;-86
2023/01/15 09:56:26;;;;;;;;;0.00;0.00;;;;;6.92;100.00;100661.84;4991435;28;45708;-86
2023/01/15 09:58:52;;;;;;;;;0.00;0.00;;;;;6.97;100.00;100672.97;4996029;28;45817;-87
2023/01/15 10:01:32;;;;;;;;;1.00;0.25;;;;;7.01;100.00;100666.03;4989232;28;45411;-86
2023/01/15 10:04:06;;;;;;;;;1.00;0.50;;;;;7.01;100.00;100682.41;4987625;28;45395;-90
2023/01/15 10:06:42;;;;;;;;;0.25;0.00;;;;;7.02;100.00;100680.66;4979344;28;45848;-86
2023/01/15 10:09:14;;;;;;;;;0.00;0.00;;;;;7.04;100.00;100678.91;5008884;28;45413;-86
2023/01/15 10:14:37;;;;;;;;;0.00;0.00;;;;;7.12;100.00;100675.31;5020136;28;45443;-86
2023/01/15 10:17:05;;;;;;;;;0.00;0.00;;;;;7.17;100.00;100686.47;4995755;28;46391;-86
2023/01/15 10:19:31;;;;;;;;;0.00;0.00;;;;;7.20;100.00;100672.59;4995521;28;45401;-87
2023/01/15 10:22:28;;;;;;;;;1.00;0.00;;;;;7.22;100.00;100662.25;4994955;28;59411;-86
2023/01/15 10:24:57;;;;;;;;;2.00;0.00;;;;;7.24;100.00;100663.06;4979858;28;45796;-86
2023/01/15 10:27:25;;;;;;;;;1.25;0.00;;;;;7.26;100.00;100677.72;4996420;28;45472;-89
2023/01/15 10:30:00;;;;;;;;;0.00;0.00;;;;;7.36;100.00;100661.13;5027767;28;45508;-87
2023/01/15 10:32:38;;;;;;;;;1.00;0.00;;;;;7.47;100.00;100679.09;4996656;28;45445;-86
2023/01/15 10:35:07;;;;;;;;;0.75;0.00;;;;;7.63;100.00;100663.25;4995813;28;45448;-88
2023/01/15 10:37:46;;;;;;;;;0.00;0.00;;;;;7.70;100.00;100683.84;4995746;28;47091;-88
2023/01/15 10:40:56;;;;;;;;;0.00;0.00;;;;;7.80;100.00;100671.59;4978488;28;46243;-87
2023/01/15 10:43:52;;;;;;;;;1.25;0.00;;;;;7.82;100.00;100661.19;5004501;28;45292;-87
2023/01/15 10:46:22;;;;;;;;;0.75;0.00;;;;;7.89;100.00;100673.13;4994867;28;45330;-87
2023/01/15 10:48:50;;;;;;;;;4.00;0.00;;;;;8.05;100.00;100673.72;4978496;28;45502;-87
2023/01/15 10:51:22;;;;;;;;;0.00;0.00;;;;;8.16;100.00;100665.72;4990344;28;45279;-87
2023/01/15 10:54:03;;;;;;;;;1.00;0.00;;;;;8.09;100.00;100690.91;4985709;28;45476;-86
2023/01/15 10:57:00;;;;;;;;;4.25;0.25;;;;;8.19;99.61;100686.41;4979266;28;45454;-86
2023/01/15 10:59:46;;;;;;;;;4.25;0.50;;;;;8.28;100.00;100686.22;5014321;28;46293;-86
2023/01/15 11:02:31;;;;;;;;;1.00;0.00;;;;;8.40;100.00;100687.72;4982081;28;45751;-87
2023/01/15 11:04:57;;;;;;;;;0.00;0.00;;;;;8.59;100.00;100678.69;5024465;28;45433;-86
2023/01/15 11:07:36;;;;;;;;;0.00;0.00;;;;;8.73;100.00;100673.19;4983052;28;45566;-86
2023/01/15 11:10:04;;;;;;;;;1.50;0.00;;;;;8.81;100.00;100652.25;4983246;28;45643;-88
2023/01/15 11:20:47;;;;;;;;;0.50;0.00;;;;;10.36;100.00;100636.97;4992850;28;45641;-86
2023/01/15 11:23:19;;;;;;;;;0.00;0.00;;;;;11.31;100.00;100639.19;5013392;28;45372;-86
2023/01/15 11:25:51;;;;;;;;;0.00;0.00;;;;;12.22;100.00;100642.97;4984829;28;45411;-86
2023/01/15 11:28:16;;;;;;;;;0.25;0.00;;;;;13.00;100.00;100644.31;5021741;28;45478;-86
2023/01/15 11:30:53;;;;;;;;;0.00;0.00;;;;;13.84;89.58;100640.78;4978474;28;45365;-90
2023/01/15 11:33:25;;;;;;;;;0.00;0.00;;;;;13.55;76.46;100662.97;4995496;28;45511;-86
2023/01/15 11:35:56;;;;;;;;;0.50;0.00;;;;;13.72;78.70;100641.31;4995605;28;45242;-85
2023/01/15 11:38:23;;;;;;;;;0.00;0.00;;;;;13.88;83.22;100672.91;4980768;28;45426;-87
2023/01/15 11:40:58;;;;;;;;;1.50;0.00;;;;;13.81;73.47;100642.69;4992260;28;46483;-87
2023/01/15 11:52:10;;;;;;;;;0.00;0.00;;;;;15.07;72.89;100648.19;5010193;28;45080;-87
2023/01/15 11:54:48;;;;;;;;;0.75;0.00;;;;;15.39;76.15;100630.00;4996957;28;45755;-88
2023/01/15 11:57:32;;;;;;;;;1.00;1.00;;;;;16.15;89.56;100631.38;5000011;28;45382;-86
2023/01/15 11:59:58;;;;;;;;;1.00;0.00;;;;;16.83;76.54;100633.78;4997128;28;45393;-86
2023/01/15 12:02:59;;;;;;;;;0.00;0.00;;;;;17.24;100.00;100627.91;4985351;28;46098;-87
2023/01/15 12:05:52;;;;;;;;;1.00;0.00;;;;;17.82;72.41;100638.53;4999680;28;45500;-86
2023/01/15 12:08:43;;;;;;;;;1.00;0.00;;;;;17.99;100.00;100612.03;4987853;28;45793;-85
2023/01/15 12:11:36;;;;;;;;;0.00;0.00;;;;;17.67;73.82;100611.38;4961267;28;45259;-84
2023/01/15 12:14:31;;;;;;;;;0.50;0.00;;;;;16.92;76.17;100616.63;4968225;28;45377;-84
2023/01/15 12:17:11;;;;;;;;;0.00;0.00;;;;;16.82;75.81;100608.38;4956578;28;45643;-82
2023/01/15 12:19:58;;;;;;;;;0.00;0.00;;;;;16.96;72.80;100597.13;4967640;28;45458;-84
2023/01/15 12:22:39;;;;;;;;;0.00;0.00;;;;;17.07;79.62;100596.47;4940530;28;45598;-84
2023/01/15 12:25:16;;;;;;;;;1.00;0.00;;;;;16.83;69.88;100578.59;4952092;28;46264;-83
2023/01/15 12:27:53;;;;;;;;;0.00;0.00;;;;;17.24;87.51;100582.38;4948212;28;45405;-84
2023/01/15 12:30:26;;;;;;;;;1.00;0.00;;;;;17.75;88.83;100580.13;4962671;28;45564;-86
2023/01/15 12:33:00;;;;;;;;;0.00;0.00;;;;;17.92;72.98;100579.13;4957250;28;45613;-84
2023/01/15 12:35:34;;;;;;;;;0.50;0.00;;;;;17.80;75.48;100585.97;4931544;28;47402;-83
2023/01/15 12:38:11;;;;;;;;;0.00;0.00;;;;;17.72;73.02;100573.28;4952172;28;45492;-84
2023/01/15 12:40:47;;;;;;;;;1.00;0.00;;;;;17.71;84.86;100576.00;4924873;28;45548;-82
2023/01/15 12:46:09;;;;;;;;;0.00;0.00;;;;;16.90;93.30;100581.69;4947110;28;46129;-83
2023/01/15 12:48:41;;;;;;;;;0.00;0.00;;;;;16.33;85.04;100590.13;4986796;28;45414;-84
2023/01/15 12:51:13;;;;;;;;;1.00;0.00;;;;;16.33;81.69;100577.00;5014364;28;45346;-88
2023/01/15 12:54:03;;;;;;;;;0.00;0.00;;;;;16.53;94.73;100567.97;5003210;28;45627;-83
2023/01/15 12:56:44;;;;;;;;;2.00;0.00;;;;;17.16;87.38;100556.50;4995984;28;46629;-84
2023/01/15 12:59:14;;;;;;;;;0.00;0.00;;;;;17.10;61.75;100559.50;5009061;28;45437;-87
2023/01/15 13:02:08;;;;;;;;;1.00;0.00;;;;;16.06;89.56;100554.81;4986951;28;45517;-83
2023/01/15 13:05:16;;;;;;;;;0.00;0.00;;;;;15.03;88.65;100556.69;4996443;28;45568;-84
2023/01/15 13:07:54;;;;;;;;;0.00;0.00;;;;;14.71;90.47;100546.06;4994940;28;46227;-84
2023/01/15 13:10:24;;;;;;;;;0.00;0.00;;;;;15.38;90.68;100539.16;4997328;28;45442;-85
2023/01/15 13:13:23;;;;;;;;;0.00;0.00;;;;;16.01;75.40;100540.22;5011607;28;45520;-93
2023/01/15 13:16:25;;;;;;;;;1.00;0.00;;;;;16.67;86.33;100531.25;4990650;28;45175;-87
2023/01/15 13:26:23;;;;;;;;;1.00;0.00;;;;;16.16;78.85;100528.88;5001536;28;45445;-91
2023/01/15 13:29:32;;;;;;;;;;;;;;;;;;;;;
2023/01/15 13:32:17;;;;;;;;;1.00;0.00;;;;;14.96;75.09;100529.94;4920897;28;74238;-91
2023/01/15 13:38:40;;;;;;;;;0.00;0.00;;;;;15.13;73.26;100528.25;4891834;29;45746;-85
2023/01/15 14:06:03;;;;;;;;;0.00;0.00;;;;;14.06;85.09;100490.66;4771035;29;45662;-92
2023/01/15 15:01:03;;;;;;;;;0.00;0.00;;;;;10.90;94.63;100479.06;1827797;22;46462;-93